Time;durP1;ratioP1;P1;durP2;ratioP2;P2;SDS_P1;SDS_P2;PMS_P1;PMS_P2;Temp;Humidity;BMP_temperature;BMP_pressure;BME280_temperature;BME280_humidity;BME280_pressure;Samples;Min_cycle;Max_cycle;Signal;HPM_P1;HPM_P2
2021/08/13 00:01:05;;;;;;;2.78;2.33;;;;;;;20.33;100.00;101246.47;5011799;28;20029;-65
2021/08/13 00:03:30;;;;;;;4.63;2.63;;;;;;;20.29;100.00;101253.94;5028049;28;20047;-66
2021/08/13 00:05:56;;;;;;;4.03;2.75;;;;;;;20.43;100.00;101247.56;5031437;28;20408;-67
2021/08/13 00:08:21;;;;;;;4.75;3.03;;;;;;;20.64;100.00;101244.56;5027358;28;20026;-64
2021/08/13 00:10:47;;;;;;;4.68;2.55;;;;;;;20.51;100.00;101252.56;5026104;28;20106;-65
2021/08/13 00:13:12;;;;;;;3.13;2.28;;;;;;;20.47;100.00;101245.56;5020634;28;20083;-67
2021/08/13 00:15:38;;;;;;;2.70;2.00;;;;;;;20.35;100.00;101246.84;5021475;28;20033;-65
2021/08/13 00:18:03;;;;;;;3.40;2.42;;;;;;;20.39;100.00;101249.53;5026651;28;20041;-65
2021/08/13 00:20:29;;;;;;;3.72;2.20;;;;;;;20.29;100.00;101244.94;5027382;28;20110;-65
2021/08/13 00:22:54;;;;;;;2.38;1.83;;;;;;;20.21;100.00;101246.22;5019767;28;20048;-65
2021/08/13 00:25:21;;;;;;;3.05;1.83;;;;;;;20.34;100.00;101250.75;5029677;28;20413;-65
2021/08/13 00:27:46;;;;;;;3.08;2.00;;;;;;;20.39;100.00;101242.13;5025844;28;20485;-65
2021/08/13 00:30:13;;;;;;;2.15;1.95;;;;;;;20.27;100.00;101236.38;5043122;28;20485;-65
2021/08/13 00:32:39;;;;;;;4.95;2.60;;;;;;;20.35;100.00;101237.84;5038348;28;20033;-65
2021/08/13 00:35:06;;;;;;;3.40;2.40;;;;;;;20.34;100.00;101219.91;5046251;28;20033;-65
2021/08/13 00:37:32;;;;;;;4.95;2.72;;;;;;;20.34;100.00;101230.84;5046840;28;20030;-67
2021/08/13 00:39:58;;;;;;;5.13;2.50;;;;;;;20.44;100.00;101219.75;5032904;28;20125;-67
2021/08/13 00:42:24;;;;;;;3.42;2.22;;;;;;;20.65;100.00;101232.47;5045023;28;20779;-66
2021/08/13 00:44:50;;;;;;;4.40;2.38;;;;;;;20.59;100.00;101231.34;5013719;28;20037;-67
2021/08/13 00:47:17;;;;;;;3.80;2.38;;;;;;;20.51;100.00;101232.59;5012707;28;20034;-67
2021/08/13 00:50:04;;;;;;;4.43;2.33;;;;;;;20.36;100.00;101245.66;5006918;28;20060;-67
2021/08/13 00:52:38;;;;;;;2.72;2.10;;;;;;;20.31;100.00;101250.78;5042889;28;20525;-67
2021/08/13 00:55:07;;;;;;;2.65;2.08;;;;;;;20.25;100.00;101245.00;5030365;28;20025;-67
2021/08/13 00:58:06;;;;;;;4.07;2.42;;;;;;;20.30;100.00;101249.25;5019362;28;20029;-67
2021/08/13 01:01:11;;;;;;;3.05;2.28;;;;;;;;;;4953847;28;20051;-66
2021/08/13 01:03:39;;;;;;;3.53;2.78;;;;;;;20.69;100.00;101244.91;4969306;28;20034;-67
2021/08/13 01:06:07;;;;;;;2.97;2.30;;;;;;;20.60;100.00;101244.63;4982485;28;20052;-67
2021/08/13 01:08:34;;;;;;;3.72;2.55;;;;;;;20.48;100.00;101244.34;5046016;28;20030;-67
2021/08/13 01:11:15;;;;;;;3.60;2.00;;;;;;;20.45;100.00;101245.19;5030678;28;20041;-67
2021/08/13 01:13:54;;;;;;;3.30;2.15;;;;;;;20.53;100.00;101258.41;5005985;28;20037;-67
2021/08/13 01:16:22;;;;;;;3.40;2.33;;;;;;;20.48;100.00;101260.78;5044854;28;20037;-67
2021/08/13 01:18:54;;;;;;;2.25;1.75;;;;;;;20.30;100.00;101265.66;5040003;28;20025;-67
2021/08/13 01:21:31;;;;;;;4.10;2.53;;;;;;;20.43;100.00;101259.28;5033998;28;20420;-67
2021/08/13 01:24:04;;;;;;;3.35;2.28;;;;;;;20.46;100.00;101266.66;5012807;28;20025;-68
2021/08/13 01:26:33;;;;;;;3.22;2.10;;;;;;;20.56;100.00;101270.47;5038705;28;20064;-67
2021/08/13 01:29:11;;;;;;;3.50;2.20;;;;;;;20.69;100.00;101268.78;5033249;28;20037;-68
2021/08/13 01:31:48;;;;;;;3.05;2.20;;;;;;;20.77;100.00;101267.50;5007167;28;20088;-67
2021/08/13 01:34:18;;;;;;;4.15;2.47;;;;;;;20.55;100.00;101277.16;5045746;28;20044;-68
2021/08/13 01:36:48;;;;;;;4.30;2.60;;;;;;;20.42;100.00;101268.66;5005488;28;20137;-67
2021/08/13 01:39:15;;;;;;;3.47;2.10;;;;;;;20.43;100.00;101270.22;5012886;28;20034;-68
2021/08/13 01:41:42;;;;;;;2.67;2.05;;;;;;;20.39;100.00;101263.22;5044780;28;20036;-66
2021/08/13 01:44:12;;;;;;;3.55;2.40;;;;;;;20.32;100.00;101260.56;5029368;28;20023;-67
2021/08/13 01:46:38;;;;;;;4.30;2.58;;;;;;;20.38;100.00;101267.16;5022776;28;20032;-66
2021/08/13 01:49:04;;;;;;;4.20;2.20;;;;;;;20.50;100.00;101263.88;5011088;28;20060;-67
2021/08/13 01:51:34;;;;;;;2.47;2.22;;;;;;;20.69;100.00;101260.56;5045100;28;20048;-67
2021/08/13 01:54:02;;;;;;;3.25;2.30;;;;;;;20.54;100.00;101272.84;5036034;28;20032;-67
2021/08/13 01:56:31;;;;;;;2.80;2.05;;;;;;;20.51;100.00;101277.19;4996802;28;20029;-67
2021/08/13 01:58:59;;;;;;;3.65;2.45;;;;;;;20.52;100.00;101275.22;5030693;28;20038;-68
2021/08/13 02:01:28;;;;;;;4.40;2.40;;;;;;;20.40;100.00;101264.78;5043289;28;20083;-67
2021/08/13 02:03:54;;;;;;;2.92;2.03;;;;;;;20.55;100.00;101275.19;5044942;28;20040;-67
2021/08/13 02:06:21;;;;;;;2.83;2.42;;;;;;;20.59;100.00;101258.72;5044918;28;20578;-67
2021/08/13 02:08:47;;;;;;;3.38;2.22;;;;;;;20.57;100.00;101263.81;5041345;28;20105;-67
2021/08/13 02:11:26;;;;;;;3.13;1.90;;;;;;;20.65;100.00;101262.56;5044495;28;20152;-65
2021/08/13 02:13:55;;;;;;;2.60;2.03;;;;;;;20.62;100.00;101260.63;4988068;28;20033;-66
2021/08/13 02:16:25;;;;;;;3.88;2.30;;;;;;;20.59;100.00;101256.00;5022739;28;20048;-67
2021/08/13 02:19:00;;;;;;;3.63;2.50;;;;;;;20.66;100.00;101264.91;5041271;28;20124;-67
2021/08/13 02:21:28;;;;;;;5.25;2.70;;;;;;;20.56;100.00;101256.78;5046490;28;20288;-67
2021/08/13 02:23:54;;;;;;;3.72;2.20;;;;;;;20.64;100.00;101258.25;5048004;28;20744;-67
2021/08/13 02:26:21;;;;;;;3.50;2.30;;;;;;;20.68;100.00;101256.25;5032526;28;20048;-67
2021/08/13 02:28:49;;;;;;;4.18;2.63;;;;;;;20.72;100.00;101253.47;5037628;28;20029;-67
2021/08/13 02:31:18;;;;;;;3.53;2.45;;;;;;;20.77;100.00;101251.06;5015675;28;20044;-66
2021/08/13 02:33:44;;;;;;;3.13;1.90;;;;;;;20.81;100.00;101257.28;5047703;28;20025;-68
2021/08/13 02:36:16;;;;;;;3.03;2.10;;;;;;;20.80;100.00;101257.69;5015288;28;20038;-66
2021/08/13 02:39:12;;;;;;;3.40;2.47;;;;;;;20.86;100.00;101264.28;5025247;28;20087;-68
2021/08/13 02:41:42;;;;;;;2.60;2.25;;;;;;;20.64;100.00;101263.75;5008993;28;20041;-67
2021/08/13 02:44:09;;;;;;;4.30;2.40;;;;;;;20.39;100.00;101265.97;5041824;28;20460;-65
2021/08/13 02:46:43;;;;;;;4.03;2.35;;;;;;;20.33;100.00;101259.38;5036487;28;20052;-68
2021/08/13 02:49:11;;;;;;;3.50;2.53;;;;;;;20.30;100.00;101263.72;5046986;28;20034;-67
2021/08/13 02:51:40;;;;;;;3.15;2.30;;;;;;;20.15;100.00;101247.81;5033281;28;20124;-67
2021/08/13 02:54:07;;;;;;;3.13;2.45;;;;;;;20.11;100.00;101247.06;5046227;28;20049;-67
2021/08/13 02:56:36;;;;;;;3.47;2.25;;;;;;;20.31;100.00;101250.78;5049001;28;20448;-66
2021/08/13 02:59:07;;;;;;;3.22;2.30;;;;;;;20.40;100.00;101249.13;5036509;28;20033;-67
2021/08/13 03:01:36;;;;;;;4.57;2.58;;;;;;;20.15;100.00;101245.81;5013989;28;20033;-66
2021/08/13 03:04:07;;;;;;;4.10;2.70;;;;;;;19.99;100.00;101242.09;5045307;28;20382;-63
2021/08/13 03:06:36;;;;;;;5.05;3.25;;;;;;;19.94;100.00;101248.00;5011664;28;20037;-68
2021/08/13 03:09:04;;;;;;;4.50;2.97;;;;;;;19.79;100.00;101242.63;5009247;28;20554;-67
2021/08/13 03:11:33;;;;;;;3.92;2.63;;;;;;;19.69;100.00;101237.25;5004979;28;20041;-66
2021/08/13 03:13:58;;;;;;;4.63;2.78;;;;;;;19.59;100.00;101238.09;5047088;28;20480;-66
2021/08/13 03:16:27;;;;;;;5.90;3.55;;;;;;;19.62;100.00;101229.09;5011899;28;20148;-67
2021/08/13 03:18:55;;;;;;;5.40;3.08;;;;;;;19.56;100.00;101236.16;5005725;28;20120;-67
2021/08/13 03:21:23;;;;;;;5.50;3.33;;;;;;;19.57;100.00;101227.56;5043748;28;20045;-65
2021/08/13 03:23:49;;;;;;;3.63;2.95;;;;;;;19.51;100.00;101229.16;5045744;28;20512;-65
2021/08/13 03:26:14;;;;;;;4.38;3.17;;;;;;;19.46;100.00;101232.34;5037209;28;20100;-67
2021/08/13 03:28:40;;;;;;;5.43;3.28;;;;;;;19.58;100.00;101234.59;5026751;28;20400;-65
2021/08/13 03:31:06;;;;;;;5.22;3.47;;;;;;;19.57;100.00;101237.72;5045587;28;20029;-66
2021/08/13 03:33:35;;;;;;;4.38;3.05;;;;;;;19.35;100.00;101231.63;5045471;28;20037;-64
2021/08/13 03:36:02;;;;;;;4.00;3.28;;;;;;;19.30;100.00;101228.53;5011235;28;20038;-65
2021/08/13 03:38:29;;;;;;;5.72;3.20;;;;;;;19.16;100.00;101231.31;5047540;28;20041;-66
2021/08/13 03:40:54;;;;;;;4.30;3.00;;;;;;;19.15;100.00;101233.28;5016389;28;20029;-65
2021/08/13 03:43:20;;;;;;;6.15;3.30;;;;;;;19.24;100.00;101228.13;5024380;28;20125;-65
2021/08/13 03:45:45;;;;;;;5.43;3.50;;;;;;;19.29;100.00;101241.41;5034555;28;20099;-66
2021/08/13 03:48:12;;;;;;;5.03;3.33;;;;;;;19.20;100.00;101243.00;5029079;28;20017;-65
2021/08/13 03:50:37;;;;;;;4.47;2.78;;;;;;;19.31;100.00;101244.50;5032598;28;20033;-69
2021/08/13 03:53:03;;;;;;;4.72;2.78;;;;;;;19.19;100.00;101242.22;5020008;28;20374;-65
2021/08/13 03:55:29;;;;;;;5.25;3.22;;;;;;;19.30;100.00;101248.41;5042916;28;20068;-65
2021/08/13 03:57:54;;;;;;;5.18;3.22;;;;;;;19.22;100.00;101259.78;5017793;28;20033;-65
2021/08/13 04:00:20;;;;;;;4.30;2.90;;;;;;;19.05;100.00;101261.41;5012614;28;20030;-65
2021/08/13 04:02:49;;;;;;;3.80;2.92;;;;;;;19.02;100.00;101256.75;5027622;28;20034;-66
2021/08/13 04:05:20;;;;;;;5.68;3.03;;;;;;;18.98;100.00;101255.97;5012163;28;20037;-65
2021/08/13 04:07:47;;;;;;;5.90;3.45;;;;;;;19.10;100.00;101249.31;5008041;28;20550;-67
2021/08/13 04:10:13;;;;;;;5.00;3.30;;;;;;;19.15;100.00;101252.38;5014342;28;20038;-66
2021/08/13 04:12:38;;;;;;;5.82;3.10;;;;;;;19.04;100.00;101257.13;5000085;28;20029;-65
2021/08/13 04:15:33;;;;;;;4.40;3.25;;;;;;;18.95;100.00;101248.56;5005826;28;20055;-65
2021/08/13 04:17:59;;;;;;;5.10;3.22;;;;;;;19.00;100.00;101242.72;5014018;28;20038;-66
2021/08/13 04:20:28;;;;;;;4.43;2.90;;;;;;;18.98;100.00;101247.78;5012167;28;20045;-66
2021/08/13 04:22:57;;;;;;;4.65;3.33;;;;;;;19.01;100.00;101252.44;5012569;28;20034;-65
2021/08/13 04:25:23;;;;;;;9.60;3.72;;;;;;;18.84;100.00;101253.31;5004460;28;20083;-67
2021/08/13 04:27:51;;;;;;;5.28;3.78;;;;;;;18.98;100.00;101255.19;5005042;28;20035;-66
2021/08/13 04:30:17;;;;;;;5.30;3.42;;;;;;;18.90;100.00;101266.16;5022868;28;20034;-67
2021/08/13 04:32:43;;;;;;;5.70;3.55;;;;;;;18.94;100.00;101277.06;4990590;28;20541;-68
2021/08/13 04:35:11;;;;;;;6.28;3.88;;;;;;;18.95;100.00;101264.19;5005335;28;20104;-66
2021/08/13 04:37:37;;;;;;;5.05;3.78;;;;;;;18.96;100.00;101265.72;5032488;28;20087;-66
2021/08/13 04:40:04;;;;;;;6.63;4.43;;;;;;;19.01;100.00;101262.59;5003310;28;20033;-65
2021/08/13 04:42:35;;;;;;;5.72;3.60;;;;;;;19.00;100.00;101261.81;4997696;28;20040;-66
2021/08/13 04:45:01;;;;;;;7.22;3.88;;;;;;;18.99;100.00;101262.97;5000294;28;20041;-65
2021/08/13 04:47:26;;;;;;;7.00;3.90;;;;;;;19.02;100.00;101256.75;5000446;28;20091;-66
2021/08/13 04:49:54;;;;;;;6.68;3.90;;;;;;;19.03;100.00;101255.56;4998965;28;20120;-65
2021/08/13 04:52:20;;;;;;;8.98;4.38;;;;;;;19.08;100.00;101263.34;5002250;28;20183;-65
2021/08/13 04:54:48;;;;;;;6.68;3.90;;;;;;;19.07;100.00;101267.25;4996396;28;20117;-65
2021/08/13 04:57:16;;;;;;;4.72;3.28;;;;;;;19.18;100.00;101267.22;4987840;28;20508;-66
2021/08/13 04:59:42;;;;;;;6.45;4.03;;;;;;;19.17;100.00;101269.16;5038056;28;20073;-66
2021/08/13 05:02:11;;;;;;;8.02;4.32;;;;;;;19.08;100.00;101279.75;5018015;28;20022;-66
2021/08/13 05:04:37;;;;;;;7.15;4.40;;;;;;;19.13;100.00;101284.78;5024905;28;20383;-66
2021/08/13 05:07:03;;;;;;;8.00;4.40;;;;;;;19.11;100.00;101278.94;5037929;28;20083;-66
2021/08/13 05:09:28;;;;;;;7.88;4.72;;;;;;;19.31;100.00;101269.09;5031131;28;20040;-65
2021/08/13 05:11:54;;;;;;;5.90;3.92;;;;;;;19.37;100.00;101269.47;5024915;28;20045;-67
2021/08/13 05:14:20;;;;;;;6.55;4.25;;;;;;;19.44;100.00;101272.94;5010968;28;20113;-67
2021/08/13 05:16:46;;;;;;;5.20;3.80;;;;;;;19.45;100.00;101277.22;4993282;28;20120;-66
2021/08/13 05:19:12;;;;;;;6.55;4.03;;;;;;;19.37;100.00;101270.25;5014154;28;20451;-67
2021/08/13 05:21:39;;;;;;;6.38;3.92;;;;;;;19.58;100.00;101275.59;5019223;28;20067;-66
2021/08/13 05:24:06;;;;;;;6.97;4.28;;;;;;;19.64;100.00;101270.47;5025997;28;20037;-65
2021/08/13 05:26:32;;;;;;;6.45;4.15;;;;;;;19.74;100.00;101269.63;5045133;28;20029;-66
2021/08/13 05:28:57;;;;;;;5.68;4.18;;;;;;;19.90;100.00;101272.63;5042007;28;20030;-67
2021/08/13 05:31:24;;;;;;;7.03;4.20;;;;;;;19.95;100.00;101274.16;5031395;28;20120;-66
2021/08/13 05:33:49;;;;;;;7.70;4.45;;;;;;;20.00;100.00;101274.50;5028759;28;20486;-66
2021/08/13 05:36:16;;;;;;;7.20;4.53;;;;;;;20.46;100.00;101280.34;5008831;28;20378;-67
2021/08/13 05:38:43;;;;;;;7.45;4.68;;;;;;;21.04;100.00;101284.81;5010689;28;20025;-66
2021/08/13 05:41:09;;;;;;;7.20;4.57;;;;;;;21.41;100.00;101287.47;5011068;28;20033;-66
2021/08/13 05:43:35;;;;;;;8.60;4.40;;;;;;;22.14;98.55;101295.75;5009855;28;20121;-66
2021/08/13 05:46:00;;;;;;;6.25;4.30;;;;;;;22.56;96.37;101288.75;5041783;28;20028;-66
2021/08/13 05:48:26;;;;;;;6.40;4.05;;;;;;;22.95;94.04;101285.28;5045362;28;20029;-66
2021/08/13 05:50:52;;;;;;;9.27;4.50;;;;;;;23.19;92.74;101283.97;5017516;28;20048;-67
2021/08/13 05:53:17;;;;;;;6.63;4.28;;;;;;;23.43;91.81;101281.91;5018645;28;20041;-66
2021/08/13 05:55:43;;;;;;;6.70;4.25;;;;;;;23.62;90.70;101290.13;5021587;28;20037;-66
2021/08/13 05:58:08;;;;;;;6.28;4.13;;;;;;;23.77;90.26;101288.56;5041510;28;20026;-66
2021/08/13 06:00:34;;;;;;;8.07;3.70;;;;;;;23.82;89.93;101298.31;5026051;28;20041;-65
2021/08/13 06:03:05;;;;;;;5.35;3.95;;;;;;;23.85;90.18;101287.22;5010542;28;20861;-66
2021/08/13 06:05:35;;;;;;;5.50;3.47;;;;;;;24.06;88.93;101288.72;4996484;28;20493;-65
2021/08/13 06:08:03;;;;;;;5.55;3.30;;;;;;;24.13;88.54;101288.53;5040306;28;20021;-66
2021/08/13 06:10:29;;;;;;;4.45;3.28;;;;;;;24.28;86.33;101286.94;5014682;28;20077;-66
2021/08/13 06:12:56;;;;;;;5.63;3.45;;;;;;;24.37;87.65;101289.09;5014234;28;20034;-66
2021/08/13 06:15:22;;;;;;;7.25;3.50;;;;;;;24.34;85.87;101287.97;5018603;28;20402;-66
2021/08/13 06:17:48;;;;;;;3.60;2.85;;;;;;;24.30;85.31;101281.00;5022247;28;20051;-66
2021/08/13 06:20:19;;;;;;;4.28;2.88;;;;;;;24.30;86.55;101281.00;5017535;28;20025;-66
2021/08/13 06:22:51;;;;;;;5.85;3.17;;;;;;;24.19;86.11;101273.03;5014399;28;20029;-66
2021/08/13 06:25:17;;;;;;;3.40;2.63;;;;;;;24.32;85.95;101273.88;5018154;28;20043;-67
2021/08/13 06:27:45;;;;;;;3.00;2.13;;;;;;;24.45;84.54;101284.97;5022156;28;20017;-67
2021/08/13 06:30:14;;;;;;;3.33;2.55;;;;;;;24.40;82.82;101280.75;5017386;28;20473;-66
2021/08/13 06:32:39;;;;;;;3.35;2.72;;;;;;;24.38;81.74;101269.38;5033175;28;20037;-66
2021/08/13 06:35:06;;;;;;;4.03;2.45;;;;;;;24.38;82.22;101263.09;5019260;28;20025;-68
2021/08/13 06:37:32;;;;;;;2.97;2.20;;;;;;;24.36;83.04;101266.28;5018887;28;20029;-66
2021/08/13 06:39:58;;;;;;;3.65;2.55;;;;;;;24.58;80.65;101270.03;5035658;28;20028;-67
2021/08/13 06:42:23;;;;;;;4.03;2.50;;;;;;;24.71;81.46;101270.84;5034314;28;20064;-66
2021/08/13 06:45:09;;;;;;;4.57;2.42;;;;;;;24.84;80.90;101271.66;5017604;28;20107;-65
2021/08/13 06:47:34;;;;;;;3.40;2.33;;;;;;;24.96;80.04;101272.91;5013026;28;20064;-65
2021/08/13 06:50:00;;;;;;;3.17;2.22;;;;;;;24.81;76.51;101274.53;5022711;28;20057;-64
2021/08/13 06:52:27;;;;;;;3.03;2.20;;;;;;;24.72;75.57;101266.09;5016476;28;20108;-66
2021/08/13 06:54:53;;;;;;;2.85;2.10;;;;;;;24.84;77.17;101274.44;5036193;28;20104;-66
2021/08/13 06:57:18;;;;;;;3.33;2.20;;;;;;;24.95;76.77;101272.13;5043783;28;20539;-67
2021/08/13 06:59:44;;;;;;;2.40;2.03;;;;;;;25.13;77.77;101276.34;5017640;28;20033;-66
2021/08/13 07:02:09;;;;;;;4.82;2.47;;;;;;;25.22;78.75;101282.00;5022636;28;20038;-66
2021/08/13 07:04:35;;;;;;;2.90;2.22;;;;;;;25.37;74.83;101266.56;5036914;28;20037;-67
2021/08/13 07:07:00;;;;;;;2.30;1.75;;;;;;;25.50;75.29;101275.63;5010144;28;20339;-67
2021/08/13 07:09:26;;;;;;;4.03;2.08;;;;;;;25.46;73.93;101280.50;5012148;28;20116;-65
2021/08/13 07:11:51;;;;;;;3.35;2.30;;;;;;;25.48;74.88;101281.59;5020299;28;20029;-66
2021/08/13 07:14:18;;;;;;;2.30;1.67;;;;;;;25.57;75.08;101286.47;5012387;28;20033;-66
2021/08/13 07:16:44;;;;;;;2.65;1.90;;;;;;;25.73;74.96;101294.63;5013511;28;20406;-67
2021/08/13 07:19:10;;;;;;;3.53;2.17;;;;;;;25.87;73.50;101288.66;5045520;28;20029;-67
2021/08/13 07:21:36;;;;;;;3.45;2.22;;;;;;;25.93;74.23;101286.88;5046998;28;20025;-67
2021/08/13 07:24:02;;;;;;;2.85;2.33;;;;;;;25.85;71.34;101278.06;5009374;28;20029;-66
2021/08/13 07:26:28;;;;;;;3.78;2.22;;;;;;;25.95;73.53;101278.91;5013847;28;20030;-66
2021/08/13 07:28:53;;;;;;;3.70;1.83;;;;;;;26.07;72.73;101285.66;5024970;28;20071;-66
2021/08/13 07:31:19;;;;;;;2.35;1.77;;;;;;;26.08;73.13;101287.97;5024686;28;20037;-66
2021/08/13 07:33:51;;;;;;;2.63;1.75;;;;;;;26.13;71.56;101298.44;5014015;28;20056;-66
2021/08/13 07:36:17;;;;;;;3.97;2.35;;;;;;;26.20;71.28;101295.47;5028931;28;20068;-66
2021/08/13 07:38:43;;;;;;;3.05;1.85;;;;;;;26.23;71.91;101291.81;5045559;28;20029;-66
2021/08/13 07:41:10;;;;;;;2.22;1.88;;;;;;;26.16;74.22;101289.28;5012539;28;20074;-66
2021/08/13 07:43:37;;;;;;;2.95;1.80;;;;;;;26.16;74.66;101291.28;5015813;28;20126;-66
2021/08/13 07:46:05;;;;;;;2.90;1.85;;;;;;;26.17;73.03;101287.31;5016463;28;20061;-66
2021/08/13 07:48:31;;;;;;;3.00;2.10;;;;;;;26.22;72.81;101301.31;5016258;28;20026;-67
2021/08/13 07:50:56;;;;;;;2.72;2.03;;;;;;;26.34;73.51;101302.50;5031730;28;20040;-66
2021/08/13 07:53:22;;;;;;;1.60;1.42;;;;;;;26.40;72.16;101295.94;5016184;28;20037;-66
2021/08/13 07:55:48;;;;;;;2.42;1.90;;;;;;;26.60;72.12;101293.66;5016363;28;20036;-66
2021/08/13 07:58:13;;;;;;;2.38;1.88;;;;;;;26.79;71.11;101292.59;5016139;28;20025;-67
2021/08/13 08:00:39;;;;;;;2.63;1.90;;;;;;;26.77;70.60;101297.81;5015582;28;20046;-67
2021/08/13 08:03:04;;;;;;;2.17;1.70;;;;;;;26.83;69.79;101288.94;5017278;28;20046;-68
2021/08/13 08:05:30;;;;;;;2.17;1.50;;;;;;;27.01;69.24;101289.06;5021954;28;20042;-67
2021/08/13 08:07:55;;;;;;;2.65;1.77;;;;;;;27.05;66.88;101292.47;5032204;28;20021;-67
2021/08/13 08:10:21;;;;;;;2.67;1.60;;;;;;;27.24;69.27;101294.88;5031823;28;20068;-67
2021/08/13 08:12:46;;;;;;;2.83;1.73;;;;;;;27.16;68.21;101296.38;5030648;28;20029;-67
2021/08/13 08:15:11;;;;;;;2.78;1.75;;;;;;;27.22;66.64;101291.78;5006565;28;20126;-67
2021/08/13 08:17:37;;;;;;;2.47;1.55;;;;;;;27.34;66.88;101304.81;5024169;28;20471;-66
2021/08/13 08:20:04;;;;;;;1.95;1.50;;;;;;;27.44;66.55;101298.09;5026498;28;20041;-67
2021/08/13 08:22:29;;;;;;;1.98;1.60;;;;;;;27.56;65.76;101299.22;5022618;28;20046;-67
2021/08/13 08:24:55;;;;;;;1.98;1.50;;;;;;;27.60;65.94;101303.38;5024655;28;20490;-66
2021/08/13 08:27:21;;;;;;;4.05;1.75;;;;;;;27.89;65.17;101294.72;5026062;28;20075;-67
2021/08/13 08:29:46;;;;;;;1.67;1.40;;;;;;;27.93;64.31;101298.09;5022895;28;20041;-67
2021/08/13 08:32:11;;;;;;;2.10;1.65;;;;;;;27.96;63.82;101291.66;5030587;28;20017;-67
2021/08/13 08:34:37;;;;;;;2.55;1.85;;;;;;;28.08;62.61;101292.75;5031044;28;20041;-67
2021/08/13 08:37:03;;;;;;;2.28;1.77;;;;;;;28.05;62.22;101297.22;5027325;28;20624;-66
2021/08/13 08:39:29;;;;;;;2.13;1.63;;;;;;;28.17;62.15;101303.84;5022032;28;20049;-67
2021/08/13 08:41:54;;;;;;;3.00;1.67;;;;;;;28.23;63.26;101302.78;5030637;28;20413;-66
2021/08/13 08:44:20;;;;;;;2.13;1.73;;;;;;;28.18;61.79;101294.31;5024258;28;20195;-67
2021/08/13 08:46:46;;;;;;;2.42;1.70;;;;;;;28.30;62.32;101302.47;5023955;28;20106;-67
2021/08/13 08:49:16;;;;;;;2.13;1.55;;;;;;;28.28;62.78;101293.09;5021622;28;20107;-66
2021/08/13 08:51:42;;;;;;;2.55;1.60;;;;;;;28.16;61.97;101294.00;5031464;28;20029;-67
2021/08/13 08:54:08;;;;;;;3.08;2.00;;;;;;;28.35;60.91;101296.34;5033369;28;20420;-67
2021/08/13 08:56:34;;;;;;;2.40;1.50;;;;;;;28.22;60.61;101284.59;5032472;28;20075;-68
2021/08/13 08:59:00;;;;;;;2.10;1.50;;;;;;;28.45;61.30;101283.25;5019643;28;20088;-66
2021/08/13 09:01:27;;;;;;;1.90;1.60;;;;;;;28.56;60.91;101288.34;5025079;28;20030;-67
2021/08/13 09:03:53;;;;;;;1.90;1.50;;;;;;;28.60;59.32;101281.41;5025790;28;20044;-67
2021/08/13 09:06:18;;;;;;;2.65;1.83;;;;;;;28.59;58.33;101282.63;5027344;28;20037;-67
2021/08/13 09:08:44;;;;;;;2.40;1.55;;;;;;;28.61;57.61;101285.72;5036191;28;20038;-67
2021/08/13 09:11:10;;;;;;;1.75;1.50;;;;;;;28.17;58.34;101276.91;5032965;28;20053;-66
2021/08/13 09:13:38;;;;;;;3.15;2.10;;;;;;;28.39;58.89;101285.88;5032013;28;20519;-68
2021/08/13 09:16:12;;;;;;;2.38;1.55;;;;;;;28.64;57.44;101275.72;5038114;28;20028;-66
2021/08/13 09:18:38;;;;;;;1.88;1.52;;;;;;;28.48;57.82;101283.09;5022033;28;20397;-67
2021/08/13 09:21:04;;;;;;;2.53;1.70;;;;;;;28.72;59.33;101288.03;5032923;28;20484;-67
2021/08/13 09:23:30;;;;;;;2.50;1.60;;;;;;;28.86;58.64;101282.59;5028598;28;20071;-67
2021/08/13 09:25:58;;;;;;;2.33;1.50;;;;;;;28.74;58.41;101278.03;5027424;28;20072;-68
2021/08/13 09:28:46;;;;;;;2.67;1.65;;;;;;;28.96;57.92;101273.03;5029031;28;20525;-67
2021/08/13 09:31:18;;;;;;;2.58;1.50;;;;;;;28.90;57.43;101274.16;5024418;28;20037;-67
2021/08/13 09:33:48;;;;;;;2.08;1.50;;;;;;;29.00;57.53;101267.31;5041652;28;20144;-66
2021/08/13 09:36:16;;;;;;;1.65;1.27;;;;;;;29.09;57.10;101275.63;5010528;28;20069;-67
2021/08/13 09:38:42;;;;;;;3.25;1.77;;;;;;;29.45;57.15;101280.31;5043198;28;20025;-67
2021/08/13 09:41:14;;;;;;;2.00;1.58;;;;;;;29.07;56.29;101278.09;5029407;28;20033;-66
2021/08/13 09:44:01;;;;;;;2.15;1.38;;;;;;;28.79;55.52;101276.63;5042933;28;20032;-67
2021/08/13 09:46:28;;;;;;;2.10;1.50;;;;;;;28.85;57.64;101285.84;5041076;28;20060;-67
2021/08/13 09:49:12;;;;;;;1.70;1.50;;;;;;;29.09;57.28;101290.25;5041840;28;20029;-68
2021/08/13 09:51:37;;;;;;;2.08;1.67;;;;;;;29.02;55.99;101289.81;5038918;28;20464;-67
2021/08/13 09:54:05;;;;;;;1.90;1.48;;;;;;;29.12;56.82;101289.34;5016381;28;20068;-67
2021/08/13 09:56:33;;;;;;;1.63;1.17;;;;;;;29.19;56.60;101289.03;5029582;28;20033;-67
2021/08/13 09:59:12;;;;;;;2.20;1.42;;;;;;;29.52;57.40;101289.06;5038432;28;20033;-66
2021/08/13 10:01:45;;;;;;;1.80;1.40;;;;;;;29.28;54.78;101293.81;5007150;28;20034;-67
2021/08/13 10:04:11;;;;;;;3.40;1.70;;;;;;;29.36;56.50;101281.88;5015254;28;20597;-68
2021/08/13 10:06:38;;;;;;;1.63;1.45;;;;;;;29.30;55.11;101277.44;5012070;28;20037;-66
2021/08/13 10:09:05;;;;;;;1.77;1.40;;;;;;;29.47;55.19;101284.16;5027732;28;20026;-67
2021/08/13 10:11:35;;;;;;;2.97;1.70;;;;;;;29.53;56.75;101285.06;5011176;28;20111;-66
2021/08/13 10:14:03;;;;;;;1.77;1.27;;;;;;;29.61;57.23;101274.38;5036758;28;20032;-67
2021/08/13 10:16:30;;;;;;;2.50;1.58;;;;;;;29.63;56.94;101278.22;5238152;22;20414;-68
2021/08/13 10:19:01;;;;;;;2.63;1.33;;;;;;;29.61;54.65;101272.38;5002959;28;20049;-67
2021/08/13 10:21:30;;;;;;;2.65;1.60;;;;;;;29.45;55.31;101267.19;5006918;28;20111;-67
2021/08/13 10:23:59;;;;;;;1.88;1.58;;;;;;;29.42;54.79;101267.38;5008025;28;20032;-68
2021/08/13 10:26:26;;;;;;;2.08;1.67;;;;;;;29.15;54.77;101271.78;5023386;28;20075;-68
2021/08/13 10:28:53;;;;;;;1.98;1.70;;;;;;;29.26;55.58;101268.50;5007836;28;20029;-68
2021/08/13 10:31:20;;;;;;;2.25;1.52;;;;;;;29.42;55.69;101274.44;4999054;28;20363;-68
2021/08/13 10:33:53;;;;;;;1.83;1.40;;;;;;;29.45;55.96;101272.75;5016067;28;20032;-67
2021/08/13 10:36:20;;;;;;;2.10;1.50;;;;;;;29.64;57.05;101273.41;5013031;28;20473;-68
2021/08/13 10:38:50;;;;;;;1.77;1.58;;;;;;;29.75;55.91;101268.16;5007296;28;20517;-68
2021/08/13 10:41:20;;;;;;;2.92;1.83;;;;;;;29.81;55.10;101261.47;5009360;28;20029;-67
2021/08/13 10:43:49;;;;;;;2.53;1.65;;;;;;;29.98;57.30;101273.72;5009041;28;20029;-68
2021/08/13 10:46:18;;;;;;;2.67;1.67;;;;;;;29.82;53.93;101268.56;5031142;28;20903;-67
2021/08/13 10:48:46;;;;;;;2.15;1.30;;;;;;;29.95;55.31;101260.75;5008410;28;20030;-67
2021/08/13 10:51:12;;;;;;;2.13;1.42;;;;;;;29.95;53.76;101258.00;5002091;28;20112;-67
2021/08/13 10:53:38;;;;;;;2.40;1.80;;;;;;;30.00;54.75;101251.75;4992712;28;20470;-67
2021/08/13 10:56:39;;;;;;;2.13;1.50;;;;;;;30.10;53.49;101258.81;5012117;28;20030;-68
2021/08/13 10:59:08;;;;;;;2.53;1.55;;;;;;;30.10;54.09;101256.03;5014656;28;20057;-68
2021/08/13 11:02:11;;;;;;;2.47;1.73;;;;;;;30.12;53.67;101255.56;5011209;28;20033;-68
2021/08/13 11:04:49;;;;;;;1.77;1.40;;;;;;;30.56;53.09;101244.56;5008550;28;20482;-68
2021/08/13 11:07:53;;;;;;;1.80;1.70;;;;;;;30.44;53.78;101245.59;5014242;28;20041;-68
2021/08/13 11:10:53;;;;;;;1.85;1.63;;;;;;;30.26;51.65;101238.91;5005038;28;20092;-68
2021/08/13 11:13:20;;;;;;;2.00;1.45;;;;;;;30.62;53.32;101232.28;5013484;28;20136;-67
2021/08/13 11:15:49;;;;;;;;;;;;;;;30.70;51.84;101230.63;5019236;28;20030;-68
2021/08/13 11:18:28;;;;;;;2.10;1.48;;;;;;;30.91;52.27;101239.88;5020696;28;20386;-67
2021/08/13 11:20:55;;;;;;;1.98;1.77;;;;;;;30.89;53.02;101225.69;5008345;28;20469;-70
2021/08/13 11:23:22;;;;;;;1.85;1.30;;;;;;;30.46;52.72;101229.19;5013081;28;20083;-67
2021/08/13 11:25:49;;;;;;;1.98;1.35;;;;;;;30.30;53.14;101237.97;5020394;28;20037;-67
2021/08/13 11:28:26;;;;;;;3.00;1.58;;;;;;;30.39;52.94;101226.78;5002404;28;20030;-67